createdAt,value
2024-01-11T00:01:24.609Z,32.47
2024-01-11T00:03:51.546Z,25.77
2024-01-11T00:06:18.623Z,31.53
2024-01-11T00:08:45.716Z,29.37
2024-01-11T00:11:13.716Z,26.17
2024-01-11T00:13:41.633Z,38.73
2024-01-11T00:16:08.525Z,30.10
2024-01-11T00:18:35.532Z,28.73
2024-01-11T00:21:02.760Z,30.57
2024-01-11T00:23:29.705Z,28.03
2024-01-11T00:25:56.714Z,29.47
2024-01-11T00:28:23.659Z,27.77
2024-01-11T00:30:50.609Z,25.83
2024-01-11T00:33:17.740Z,28.50
2024-01-11T00:35:44.940Z,29.87
2024-01-11T00:38:11.957Z,25.83
2024-01-11T00:40:38.865Z,27.57
2024-01-11T00:43:05.972Z,26.03
2024-01-11T00:45:32.890Z,24.47
2024-01-11T00:47:59.977Z,26.80
2024-01-11T00:50:27.060Z,26.77
2024-01-11T00:52:54.045Z,26.80
2024-01-11T00:55:20.991Z,26.30
2024-01-11T00:57:48.307Z,26.27
2024-01-11T01:00:15.432Z,29.17
2024-01-11T01:02:42.491Z,25.97
2024-01-11T01:05:09.844Z,25.63
2024-01-11T01:07:36.747Z,26.93
2024-01-11T01:10:03.738Z,23.83
2024-01-11T01:12:30.625Z,23.17
2024-01-11T01:14:57.544Z,24.33
2024-01-11T01:17:24.490Z,25.57
2024-01-11T01:19:51.420Z,24.50
2024-01-11T01:22:18.302Z,22.40
2024-01-11T01:24:45.226Z,23.80
2024-01-11T01:27:12.165Z,23.43
2024-01-11T01:29:39.173Z,23.87
2024-01-11T01:32:06.505Z,20.33
2024-01-11T01:34:33.546Z,25.57
2024-01-11T01:37:00.504Z,23.47
2024-01-11T01:39:27.416Z,21.77
2024-01-11T01:41:54.315Z,27.07
2024-01-11T01:44:21.240Z,27.10
2024-01-11T01:46:50.154Z,24.90
2024-01-11T01:49:19.397Z,24.03
2024-01-11T01:51:46.880Z,25.77
2024-01-11T01:54:13.999Z,30.40
2024-01-11T01:56:41.037Z,26.13
2024-01-11T01:59:08.195Z,24.43
2024-01-11T02:01:35.346Z,23.47
2024-01-11T02:04:02.277Z,21.03
2024-01-11T02:06:33.388Z,26.60
2024-01-11T02:09:00.818Z,25.00
2024-01-11T02:11:28.330Z,23.90
2024-01-11T02:13:55.482Z,21.47
2024-01-11T02:16:22.442Z,18.57
2024-01-11T02:18:49.529Z,23.77
2024-01-11T02:21:18.268Z,27.30
2024-01-11T02:23:56.298Z,24.70
2024-01-11T02:26:23.740Z,22.70
2024-01-11T02:28:50.882Z,24.20
2024-01-11T02:31:17.847Z,26.00
2024-01-11T02:33:45.136Z,27.70
2024-01-11T02:36:12.153Z,26.00
2024-01-11T02:38:42.444Z,24.43
2024-01-11T02:41:09.777Z,24.30
2024-01-11T02:43:37.193Z,24.00
2024-01-11T02:46:04.554Z,24.23
2024-01-11T02:48:32.135Z,24.83
2024-01-11T02:50:59.631Z,26.50
2024-01-11T02:53:26.663Z,26.90
2024-01-11T02:55:53.622Z,23.80
2024-01-11T02:58:20.549Z,22.10
2024-01-11T03:00:47.545Z,22.13
2024-01-11T03:03:15.398Z,24.10
2024-01-11T03:05:42.556Z,22.83
2024-01-11T03:08:09.555Z,29.23
2024-01-11T03:10:39.739Z,25.00
2024-01-11T03:13:08.482Z,21.67
2024-01-11T03:15:35.464Z,24.87
2024-01-11T03:18:02.694Z,26.50
2024-01-11T03:20:30.515Z,23.27
2024-01-11T03:22:57.738Z,28.77
2024-01-11T03:25:24.785Z,24.30
2024-01-11T03:27:51.682Z,22.70
2024-01-11T03:30:18.725Z,30.30
2024-01-11T03:32:46.023Z,24.13
2024-01-11T03:35:13.352Z,20.63
2024-01-11T03:37:40.447Z,19.87
2024-01-11T03:40:08.071Z,24.20
2024-01-11T03:42:35.010Z,25.83
2024-01-11T03:45:02.072Z,25.47
2024-01-11T03:47:29.051Z,28.03
2024-01-11T03:49:56.061Z,31.47
2024-01-11T03:52:22.985Z,22.93
2024-01-11T03:54:50.176Z,23.87
2024-01-11T03:57:18.325Z,25.80
2024-01-11T03:59:46.226Z,25.73
2024-01-11T04:02:13.260Z,23.17
2024-01-11T04:04:40.321Z,24.77
2024-01-11T04:07:07.250Z,22.17
2024-01-11T04:09:34.151Z,26.47
2024-01-11T04:12:01.166Z,23.87
2024-01-11T04:14:28.133Z,26.60
2024-01-11T04:16:55.083Z,26.10
2024-01-11T04:19:23.877Z,29.47
2024-01-11T04:21:51.141Z,29.17
2024-01-11T04:24:18.033Z,24.30
2024-01-11T04:26:45.005Z,24.43
2024-01-11T04:29:11.929Z,23.70
2024-01-11T04:31:38.959Z,23.30
2024-01-11T04:34:05.909Z,27.80
2024-01-11T04:36:32.884Z,23.80
2024-01-11T04:38:59.812Z,26.33
2024-01-11T04:41:26.801Z,24.63
2024-01-11T04:43:53.740Z,24.23
2024-01-11T04:46:24.338Z,28.90
2024-01-11T04:48:51.707Z,29.37
2024-01-11T04:51:19.386Z,27.87
2024-01-11T04:53:47.409Z,29.13
2024-01-11T04:56:17.960Z,26.27
2024-01-11T04:58:46.632Z,28.27
2024-01-11T05:01:18.285Z,34.70
2024-01-11T05:03:47.213Z,25.13
2024-01-11T05:06:21.584Z,25.87
2024-01-11T05:08:50.758Z,27.00
2024-01-11T05:11:22.668Z,27.53
2024-01-11T05:13:50.630Z,26.77
2024-01-11T05:16:26.366Z,26.80
2024-01-11T05:18:55.243Z,25.73
2024-01-11T05:21:22.567Z,24.23
2024-01-11T05:23:50.088Z,27.83
2024-01-11T05:26:18.165Z,27.50
2024-01-11T05:28:45.370Z,23.60
2024-01-11T05:31:16.133Z,28.50
2024-01-11T05:33:43.500Z,26.77
2024-01-11T05:36:10.925Z,26.70
2024-01-11T05:38:40.227Z,22.77
2024-01-11T05:41:07.362Z,22.20
2024-01-11T05:43:34.360Z,25.67
2024-01-11T05:46:01.285Z,22.53
2024-01-11T05:48:28.454Z,25.27
2024-01-11T05:50:55.408Z,19.70
2024-01-11T05:53:22.674Z,25.70
2024-01-11T05:55:51.894Z,23.27
2024-01-11T05:58:20.019Z,23.17
2024-01-11T06:00:47.535Z,20.33
2024-01-11T06:03:14.611Z,19.57
2024-01-11T06:05:41.907Z,19.93
2024-01-11T06:08:08.969Z,19.13
2024-01-11T06:10:35.935Z,22.50
2024-01-11T06:13:02.854Z,21.13
2024-01-11T06:15:29.765Z,20.83
2024-01-11T06:17:57.003Z,17.87
2024-01-11T06:20:24.040Z,19.50
2024-01-11T06:22:50.945Z,26.17
2024-01-11T06:25:18.196Z,20.80
2024-01-11T06:27:45.196Z,22.23
2024-01-11T06:30:12.908Z,19.53
2024-01-11T06:32:40.135Z,22.43
2024-01-11T06:35:08.023Z,18.70
2024-01-11T06:37:35.046Z,21.50
2024-01-11T06:40:01.980Z,20.67
2024-01-11T06:42:28.932Z,22.37
2024-01-11T06:44:55.886Z,21.80
2024-01-11T06:47:23.108Z,22.90
2024-01-11T06:49:50.128Z,22.50
2024-01-11T06:52:17.082Z,22.93
2024-01-11T06:54:43.965Z,18.33
2024-01-11T06:57:10.897Z,18.80
2024-01-11T06:59:38.348Z,19.63
2024-01-11T07:02:05.567Z,17.30
2024-01-11T07:04:34.601Z,17.60
2024-01-11T07:07:01.791Z,19.67
2024-01-11T07:09:28.750Z,20.23
2024-01-11T07:11:55.917Z,22.70
2024-01-11T07:14:22.887Z,21.27
2024-01-11T07:16:50.717Z,20.37
2024-01-11T07:19:17.874Z,20.67
2024-01-11T07:21:45.036Z,17.33
2024-01-11T07:24:12.400Z,18.83
2024-01-11T07:26:39.519Z,21.10
2024-01-11T07:29:06.482Z,18.17
2024-01-11T07:31:33.425Z,19.03
2024-01-11T07:34:01.143Z,18.80
2024-01-11T07:36:28.276Z,18.93
2024-01-11T07:38:55.224Z,20.33
2024-01-11T07:41:23.813Z,20.83
2024-01-11T07:43:54.517Z,19.60
2024-01-11T07:46:29.555Z,23.70
2024-01-11T07:49:07.034Z,21.37
2024-01-11T07:51:35.841Z,24.83
2024-01-11T07:54:03.826Z,22.73
2024-01-11T07:56:31.392Z,24.17
2024-01-11T07:58:58.488Z,22.03
2024-01-11T08:01:25.572Z,24.87
2024-01-11T08:03:53.585Z,26.73
2024-01-11T08:06:21.315Z,22.27
2024-01-11T08:08:52.901Z,21.80
2024-01-11T08:11:20.364Z,25.93
2024-01-11T08:13:47.378Z,25.80
2024-01-11T08:16:19.146Z,17.23
2024-01-11T08:18:47.029Z,21.87
2024-01-11T08:21:14.157Z,20.93
2024-01-11T08:23:46.436Z,19.67
2024-01-11T08:26:15.205Z,20.53
2024-01-11T08:28:43.222Z,23.13
2024-01-11T08:31:10.380Z,27.93
2024-01-11T08:33:38.401Z,22.30
2024-01-11T08:36:08.145Z,21.83
2024-01-11T08:38:36.798Z,21.10
2024-01-11T08:41:04.711Z,19.47
2024-01-11T08:43:31.855Z,20.30
2024-01-11T08:45:58.807Z,19.23
2024-01-11T08:48:26.022Z,21.33
2024-01-11T08:50:53.106Z,21.17
2024-01-11T08:53:21.184Z,21.90
2024-01-11T08:55:48.579Z,21.63
2024-01-11T08:58:15.537Z,21.87
2024-01-11T09:00:42.473Z,27.43
2024-01-11T09:03:09.719Z,24.37
2024-01-11T09:05:36.850Z,24.57
2024-01-11T09:08:05.225Z,21.60
2024-01-11T09:10:32.243Z,22.20
2024-01-11T09:12:59.149Z,19.90
2024-01-11T09:15:26.060Z,17.60
2024-01-11T09:17:53.165Z,20.90
2024-01-11T09:20:20.294Z,19.47
2024-01-11T09:22:47.392Z,22.60
2024-01-11T09:25:14.361Z,20.07
2024-01-11T09:27:41.379Z,17.73
2024-01-11T09:30:09.995Z,22.23
2024-01-11T09:32:37.209Z,21.47
2024-01-11T09:35:05.849Z,30.20
2024-01-11T09:37:33.077Z,26.60
2024-01-11T09:40:01.823Z,21.23
2024-01-11T09:42:29.329Z,23.37
2024-01-11T09:44:57.889Z,23.33
2024-01-11T09:47:26.498Z,19.30
2024-01-11T09:49:56.812Z,29.10
2024-01-11T09:52:26.633Z,22.30
2024-01-11T09:54:53.619Z,18.03
2024-01-11T09:57:27.800Z,23.80
2024-01-11T09:59:57.308Z,23.70
2024-01-11T10:02:27.668Z,19.90
2024-01-11T10:04:54.864Z,17.60
2024-01-11T10:07:28.392Z,18.50
2024-01-11T10:09:55.379Z,20.53
2024-01-11T10:12:25.743Z,22.67
2024-01-11T10:14:53.152Z,20.13
2024-01-11T10:17:23.033Z,17.87
2024-01-11T10:19:55.229Z,25.97
2024-01-11T10:22:24.884Z,19.77
2024-01-11T10:25:13.714Z,23.40
2024-01-11T10:27:47.206Z,19.53
2024-01-11T10:30:17.493Z,19.13
2024-01-11T10:32:45.691Z,18.47
2024-01-11T10:35:12.791Z,13.70
2024-01-11T10:37:40.176Z,17.00
2024-01-11T10:40:14.107Z,10.33
2024-01-11T10:42:47.100Z,10.70
2024-01-11T10:45:19.814Z,11.33
2024-01-11T10:48:04.142Z,8.07
2024-01-11T10:50:36.030Z,9.33
2024-01-11T10:53:48.323Z,8.27
2024-01-11T10:56:19.250Z,7.27
2024-01-11T10:58:48.083Z,9.40
2024-01-11T11:01:15.640Z,9.30
2024-01-11T11:03:45.436Z,7.67
2024-01-11T11:06:13.817Z,7.50
2024-01-11T11:08:42.065Z,7.90
2024-01-11T11:11:09.867Z,9.53
2024-01-11T11:13:37.033Z,7.57
2024-01-11T11:16:07.184Z,9.43
2024-01-11T11:18:36.581Z,6.57
2024-01-11T11:21:12.649Z,7.63
2024-01-11T11:23:39.912Z,9.50
2024-01-11T11:26:11.335Z,8.63
2024-01-11T11:28:38.354Z,8.60
2024-01-11T11:31:05.358Z,9.00
2024-01-11T11:33:33.273Z,10.47
2024-01-11T11:36:00.549Z,10.60
2024-01-11T11:38:30.233Z,8.37
2024-01-11T11:40:59.898Z,11.57
2024-01-11T11:43:28.982Z,11.23
2024-01-11T11:48:40.109Z,10.57
2024-01-11T11:51:07.841Z,10.00
2024-01-11T11:53:35.323Z,8.73
2024-01-11T11:56:03.430Z,13.87
2024-01-11T11:58:32.748Z,9.93
2024-01-11T12:01:00.623Z,9.53
2024-01-11T12:03:33.316Z,9.43
2024-01-11T12:06:01.353Z,10.23
2024-01-11T12:08:28.588Z,12.67
2024-01-11T12:10:55.613Z,11.37
2024-01-11T12:13:22.990Z,10.23
2024-01-11T12:15:49.904Z,9.43
2024-01-11T12:18:17.069Z,9.70
2024-01-11T12:20:44.326Z,10.50
2024-01-11T12:23:11.323Z,8.63
2024-01-11T12:25:38.305Z,10.47
2024-01-11T12:28:07.237Z,10.13
2024-01-11T12:30:34.589Z,8.67
2024-01-11T12:33:03.348Z,12.97
2024-01-11T12:35:31.938Z,14.17
2024-01-11T12:38:10.590Z,10.30
2024-01-11T12:40:39.358Z,9.93
2024-01-11T12:43:08.568Z,12.30
2024-01-11T12:45:39.479Z,13.60
2024-01-11T12:48:09.987Z,13.60
2024-01-11T12:50:37.537Z,15.37
2024-01-11T12:53:20.267Z,12.03
2024-01-11T12:56:09.885Z,13.80
2024-01-11T12:58:37.698Z,12.80
2024-01-11T13:01:05.904Z,13.10
2024-01-11T13:03:32.887Z,12.13
2024-01-11T13:06:00.121Z,10.80
2024-01-11T13:08:28.424Z,13.20
2024-01-11T13:10:55.482Z,10.70
2024-01-11T13:13:23.692Z,13.77
2024-01-11T13:15:51.999Z,10.07
2024-01-11T13:18:19.028Z,11.90
2024-01-11T13:20:46.005Z,10.57
2024-01-11T13:23:21.642Z,8.60
2024-01-11T13:25:50.884Z,12.53
2024-01-11T13:28:19.997Z,12.10
2024-01-11T13:30:48.094Z,12.50
2024-01-11T13:33:17.825Z,8.40
2024-01-11T13:35:46.062Z,6.80
2024-01-11T13:38:13.622Z,7.80
2024-01-11T13:40:41.391Z,9.33
2024-01-11T13:43:08.612Z,10.80
2024-01-11T13:45:38.291Z,8.43
2024-01-11T13:48:06.965Z,6.17
2024-01-11T13:50:34.564Z,10.70
2024-01-11T13:53:02.075Z,12.63
2024-01-11T13:55:30.710Z,10.80
2024-01-11T13:57:57.729Z,15.00
2024-01-11T14:00:24.748Z,7.33
2024-01-11T14:02:52.027Z,11.53
2024-01-11T14:05:19.779Z,7.53
2024-01-11T14:07:47.642Z,13.87
2024-01-11T14:10:16.219Z,9.07
2024-01-11T14:12:43.615Z,10.77
2024-01-11T14:15:14.418Z,9.50
2024-01-11T14:17:42.406Z,9.77
2024-01-11T14:20:13.295Z,10.10
2024-01-11T14:22:42.834Z,11.80
2024-01-11T14:25:12.381Z,8.63
2024-01-11T14:27:39.822Z,7.93
2024-01-11T14:30:08.531Z,9.10
2024-01-11T14:32:37.766Z,15.00
2024-01-11T14:35:07.269Z,12.53
2024-01-11T14:37:36.763Z,8.00
2024-01-11T14:40:04.332Z,9.60
2024-01-11T14:42:31.259Z,15.17
2024-01-11T14:44:58.257Z,6.73
2024-01-11T14:47:25.458Z,11.30
2024-01-11T14:49:52.778Z,10.83
2024-01-11T14:52:22.433Z,16.93
2024-01-11T14:54:49.472Z,9.00
2024-01-11T14:57:16.811Z,12.70
2024-01-11T14:59:45.030Z,14.50
2024-01-11T15:02:12.300Z,9.83
2024-01-11T15:04:39.879Z,15.50
2024-01-11T15:07:07.171Z,15.17
2024-01-11T15:09:38.471Z,9.83
2024-01-11T15:12:07.272Z,10.27
2024-01-11T15:14:34.280Z,9.37
2024-01-11T15:17:01.260Z,14.00
2024-01-11T15:19:28.201Z,8.37
2024-01-11T15:21:55.164Z,21.10
2024-01-11T15:24:22.104Z,13.50
2024-01-11T15:26:50.098Z,13.30
2024-01-11T15:29:18.385Z,12.40
2024-01-11T15:31:50.388Z,12.50
2024-01-11T15:34:17.605Z,12.53
2024-01-11T15:36:44.793Z,8.27
2024-01-11T15:39:21.093Z,12.80
2024-01-11T15:41:58.446Z,11.70
2024-01-11T15:44:30.362Z,11.27
2024-01-11T15:46:58.300Z,17.53
2024-01-11T15:49:25.876Z,15.23
2024-01-11T15:51:52.998Z,11.53
2024-01-11T15:54:21.816Z,15.70
2024-01-11T15:56:49.297Z,11.53
2024-01-11T15:59:17.100Z,14.90
2024-01-11T16:01:51.730Z,11.20
2024-01-11T16:04:27.933Z,12.80
2024-01-11T16:06:55.556Z,14.53
2024-01-11T16:09:24.334Z,13.77
2024-01-11T16:11:51.459Z,8.70
2024-01-11T16:14:18.514Z,12.73
2024-01-11T16:16:45.421Z,12.33
2024-01-11T16:19:12.581Z,11.20
2024-01-11T16:21:40.240Z,10.40
2024-01-11T16:24:07.359Z,16.13
2024-01-11T16:26:34.380Z,12.30
2024-01-11T16:29:01.528Z,15.00
2024-01-11T16:31:30.094Z,10.47
2024-01-11T16:33:57.304Z,9.80
2024-01-11T16:36:24.701Z,11.00
2024-01-11T16:38:51.899Z,12.93
2024-01-11T16:41:20.107Z,10.33
2024-01-11T16:43:47.195Z,7.70
2024-01-11T16:46:23.068Z,10.93
2024-01-11T16:48:51.588Z,21.83
2024-01-11T16:51:18.902Z,9.60
2024-01-11T16:53:46.175Z,13.00
2024-01-11T16:56:13.606Z,11.47
2024-01-11T16:58:40.629Z,17.43
2024-01-11T17:01:07.750Z,14.03
2024-01-11T17:03:34.811Z,11.10
2024-01-11T17:06:01.923Z,12.57
2024-01-11T17:08:30.264Z,10.73
2024-01-11T17:10:57.238Z,13.63
2024-01-11T17:13:24.183Z,11.93
2024-01-11T17:15:51.087Z,11.80
2024-01-11T17:18:19.229Z,15.10
2024-01-11T17:20:46.505Z,15.20
2024-01-11T17:23:15.805Z,17.87
2024-01-11T17:25:43.029Z,12.93
2024-01-11T17:28:10.093Z,9.77
2024-01-11T17:30:37.106Z,9.40
2024-01-11T17:33:04.425Z,15.87
2024-01-11T17:35:31.548Z,10.60
2024-01-11T17:37:58.554Z,18.90
2024-01-11T17:40:25.469Z,12.20
2024-01-11T17:42:52.378Z,12.87
2024-01-11T17:45:19.272Z,14.17
2024-01-11T17:47:46.360Z,18.60
2024-01-11T17:50:14.040Z,13.27
2024-01-11T17:52:46.497Z,12.23
2024-01-11T17:55:14.738Z,11.90
2024-01-11T17:57:41.639Z,10.73
2024-01-11T18:00:09.110Z,13.53
2024-01-11T18:02:36.100Z,12.90
2024-01-11T18:05:03.230Z,11.33
2024-01-11T18:07:30.201Z,11.50
2024-01-11T18:09:57.198Z,13.97
2024-01-11T18:12:24.905Z,10.70
2024-01-11T18:14:52.182Z,15.03
2024-01-11T18:17:19.155Z,14.43
2024-01-11T18:19:46.142Z,15.63
2024-01-11T18:22:13.183Z,10.30
2024-01-11T18:24:40.118Z,13.07
2024-01-11T18:27:09.358Z,14.87
2024-01-11T18:29:36.531Z,14.70
2024-01-11T18:32:03.641Z,13.40
2024-01-11T18:34:32.880Z,13.77
2024-01-11T18:36:59.807Z,12.77
2024-01-11T18:39:27.430Z,13.57
2024-01-11T18:41:54.428Z,12.20
2024-01-11T18:44:21.622Z,19.30
2024-01-11T18:46:48.733Z,18.60
2024-01-11T18:49:17.843Z,17.33
2024-01-11T18:51:44.829Z,19.67
2024-01-11T18:54:11.743Z,15.50
2024-01-11T18:56:39.317Z,20.37
2024-01-11T18:59:06.634Z,14.07
2024-01-11T19:01:33.968Z,16.47
2024-01-11T19:04:01.275Z,14.80
2024-01-11T19:06:28.867Z,14.40
2024-01-11T19:08:55.860Z,18.60
2024-01-11T19:11:22.882Z,20.23
2024-01-11T19:13:49.806Z,17.40
2024-01-11T19:16:16.740Z,16.17
2024-01-11T19:18:43.785Z,18.80
2024-01-11T19:21:10.832Z,16.00
2024-01-11T19:23:40.220Z,16.90
2024-01-11T19:26:07.540Z,20.13
2024-01-11T19:28:35.063Z,14.70
2024-01-11T19:31:02.011Z,16.80
2024-01-11T19:33:29.423Z,12.70
2024-01-11T19:35:58.018Z,14.13
2024-01-11T19:38:25.341Z,11.77
2024-01-11T19:40:52.370Z,15.83
2024-01-11T19:43:19.387Z,14.93
2024-01-11T19:45:46.357Z,13.37
2024-01-11T19:48:13.687Z,15.93
2024-01-11T19:50:41.341Z,16.07
2024-01-11T19:53:09.963Z,14.77
2024-01-11T19:55:37.092Z,17.33
2024-01-11T19:58:04.232Z,15.00
2024-01-11T20:00:31.281Z,13.90
2024-01-11T20:02:58.853Z,20.50
2024-01-11T20:05:26.377Z,15.20
2024-01-11T20:07:54.012Z,18.30
2024-01-11T20:10:20.965Z,18.73
2024-01-11T20:12:48.742Z,21.37
2024-01-11T20:15:15.743Z,20.20
2024-01-11T20:17:42.741Z,24.63
2024-01-11T20:20:11.656Z,22.77
2024-01-11T20:22:38.614Z,24.93
2024-01-11T20:25:06.239Z,21.70
2024-01-11T20:27:34.736Z,24.43
2024-01-11T20:30:02.227Z,19.50
2024-01-11T20:32:29.495Z,14.60
2024-01-11T20:34:56.611Z,20.37
2024-01-11T20:37:24.625Z,21.13
2024-01-11T20:39:51.556Z,21.57
2024-01-11T20:42:18.540Z,21.73
2024-01-11T20:44:45.527Z,19.90
2024-01-11T20:47:12.537Z,20.00
2024-01-11T20:49:39.531Z,23.37
2024-01-11T20:52:06.683Z,18.80
2024-01-11T20:54:33.592Z,21.33
2024-01-11T20:57:01.209Z,22.57
2024-01-11T20:59:29.966Z,19.03
2024-01-11T21:01:57.127Z,22.00
2024-01-11T21:04:24.026Z,25.03
2024-01-11T21:06:51.011Z,20.73
2024-01-11T21:09:18.510Z,24.13
2024-01-11T21:11:45.473Z,19.63
2024-01-11T21:14:12.555Z,19.83
2024-01-11T21:16:39.509Z,21.00
2024-01-11T21:19:07.698Z,20.53
2024-01-11T21:21:40.494Z,17.40
2024-01-11T21:24:07.576Z,17.43
2024-01-11T21:26:34.861Z,24.33
2024-01-11T21:29:01.848Z,25.47
2024-01-11T21:31:32.300Z,17.10
2024-01-11T21:34:01.463Z,24.37
2024-01-11T21:36:28.513Z,18.93
2024-01-11T21:38:57.380Z,19.90
2024-01-11T21:41:26.007Z,18.20
2024-01-11T21:43:55.975Z,19.43
2024-01-11T21:46:24.057Z,20.90
2024-01-11T21:48:51.725Z,25.83
2024-01-11T21:51:19.272Z,19.30
2024-01-11T21:53:46.491Z,26.03
2024-01-11T21:56:14.162Z,17.87
2024-01-11T21:58:41.110Z,24.90
2024-01-11T22:01:08.434Z,21.80
2024-01-11T22:03:36.800Z,18.67
2024-01-11T22:06:04.599Z,18.60
2024-01-11T22:08:32.207Z,19.77
2024-01-11T22:10:59.314Z,19.33
2024-01-11T22:13:26.396Z,14.70
2024-01-11T22:15:53.399Z,13.10
2024-01-11T22:18:20.518Z,21.90
2024-01-11T22:20:47.792Z,17.20
2024-01-11T22:23:15.010Z,12.70
2024-01-11T22:25:42.045Z,14.37
2024-01-11T22:28:08.934Z,15.43
2024-01-11T22:30:37.374Z,15.50
2024-01-11T22:33:04.607Z,14.70
2024-01-11T22:35:31.820Z,14.87
2024-01-11T22:37:59.185Z,14.97
2024-01-11T22:40:26.144Z,14.00
2024-01-11T22:42:53.034Z,11.73
2024-01-11T22:45:20.025Z,14.23
2024-01-11T22:47:48.374Z,13.57
2024-01-11T22:50:15.573Z,13.80
2024-01-11T22:52:42.544Z,15.03
2024-01-11T22:55:09.557Z,15.87
2024-01-11T22:57:36.454Z,15.23
2024-01-11T23:00:10.359Z,13.60
2024-01-11T23:02:37.353Z,13.63
2024-01-11T23:05:04.661Z,14.43
2024-01-11T23:07:31.596Z,18.33
2024-01-11T23:09:58.518Z,15.80
2024-01-11T23:12:25.456Z,24.83
2024-01-11T23:14:52.434Z,14.77
2024-01-11T23:17:19.437Z,15.50
2024-01-11T23:19:46.602Z,22.10
2024-01-11T23:22:13.544Z,15.13
2024-01-11T23:24:40.441Z,15.17
2024-01-11T23:27:09.145Z,15.83
2024-01-11T23:29:37.198Z,18.23
2024-01-11T23:32:04.925Z,17.43
2024-01-11T23:34:32.832Z,21.80
2024-01-11T23:36:59.771Z,19.87
2024-01-11T23:39:26.668Z,15.77
2024-01-11T23:41:55.531Z,14.23
2024-01-11T23:44:22.537Z,13.77
2024-01-11T23:46:49.591Z,20.10
2024-01-11T23:49:16.545Z,15.70
2024-01-11T23:51:43.569Z,16.30
2024-01-11T23:54:10.497Z,15.90
2024-01-11T23:56:42.770Z,18.77
2024-01-11T23:59:10.106Z,18.57
